createdAt,value
2023-01-30T00:02:22.508Z,59.30
2023-01-30T00:07:24.804Z,59.20
2023-01-30T00:12:27.084Z,59.00
2023-01-30T00:17:29.279Z,59.10
2023-01-30T00:22:31.433Z,59.00
2023-01-30T00:27:33.736Z,59.00
2023-01-30T00:32:36.134Z,58.90
2023-01-30T00:37:38.373Z,59.10
2023-01-30T00:43:00.475Z,59.10
2023-01-30T00:48:02.823Z,59.20
2023-01-30T00:53:05.257Z,59.10
2023-01-30T00:58:07.490Z,59.10
2023-01-30T01:03:09.967Z,59.00
2023-01-30T01:08:12.435Z,58.70
2023-01-30T01:13:14.632Z,59.10
2023-01-30T01:18:16.870Z,59.00
2023-01-30T01:23:19.079Z,58.90
2023-01-30T01:28:22.372Z,58.90
2023-01-30T01:33:28.739Z,59.00
2023-01-30T01:38:31.181Z,59.10
2023-01-30T01:43:36.779Z,59.00
2023-01-30T01:48:45.123Z,58.90
2023-01-30T01:53:53.623Z,58.90
2023-01-30T01:59:02.319Z,58.90
2023-01-30T02:04:10.084Z,58.90
2023-01-30T02:09:12.403Z,59.00
2023-01-30T02:14:15.937Z,58.80
2023-01-30T02:29:58.735Z,58.70
2023-01-30T02:45:37.197Z,58.80
2023-01-30T02:50:46.339Z,58.80
2023-01-30T02:55:48.724Z,58.80
2023-01-30T03:06:46.014Z,58.90
2023-01-30T03:12:11.538Z,58.70
2023-01-30T03:17:16.726Z,58.60
2023-01-30T03:22:20.775Z,58.60
2023-01-30T03:27:23.172Z,58.60
2023-01-30T03:32:25.471Z,58.60
2023-01-30T03:37:28.172Z,58.90
2023-01-30T03:42:30.945Z,59.00
2023-01-30T03:47:33.248Z,58.90
2023-01-30T03:52:36.644Z,58.70
2023-01-30T03:57:40.221Z,58.80
2023-01-30T04:02:42.588Z,58.90
2023-01-30T04:07:46.915Z,59.00
2023-01-30T04:12:49.683Z,58.90
2023-01-30T04:17:52.635Z,58.80
2023-01-30T04:23:20.420Z,59.10
2023-01-30T04:28:23.033Z,58.90
2023-01-30T04:33:25.382Z,59.20
2023-01-30T04:38:29.821Z,59.00
2023-01-30T04:43:32.984Z,59.00
2023-01-30T04:48:55.067Z,59.00
2023-01-30T04:53:57.908Z,58.90
2023-01-30T04:59:00.495Z,59.20
2023-01-30T05:04:08.353Z,59.20
2023-01-30T05:09:10.692Z,59.20
2023-01-30T05:14:12.954Z,59.20
2023-01-30T05:19:15.166Z,59.40
2023-01-30T05:24:17.309Z,59.40
2023-01-30T05:29:19.552Z,59.40
2023-01-30T05:34:22.020Z,59.40
2023-01-30T05:39:24.297Z,59.50
2023-01-30T05:44:26.480Z,59.40
2023-01-30T05:49:28.648Z,59.40
2023-01-30T05:54:30.892Z,59.40
2023-01-30T05:59:33.110Z,59.70
2023-01-30T06:04:35.674Z,59.60
2023-01-30T06:09:37.910Z,59.80
2023-01-30T06:14:40.299Z,60.10
2023-01-30T06:19:42.477Z,59.90
2023-01-30T06:24:44.733Z,60.00
2023-01-30T06:29:46.907Z,59.90
2023-01-30T06:34:49.253Z,60.00
2023-01-30T06:39:51.453Z,60.10
2023-01-30T06:44:53.681Z,60.10
2023-01-30T06:49:55.900Z,60.00
2023-01-30T06:54:58.099Z,60.00
2023-01-30T07:00:00.327Z,60.10
2023-01-30T07:05:04.186Z,59.90
2023-01-30T07:10:09.101Z,60.30
2023-01-30T07:15:11.713Z,60.40
2023-01-30T07:20:14.052Z,60.50
2023-01-30T07:25:16.979Z,60.30
2023-01-30T07:30:20.000Z,60.30
2023-01-30T07:35:23.217Z,60.60
2023-01-30T07:40:26.762Z,60.00
2023-01-30T07:45:34.993Z,60.70
2023-01-30T07:50:37.385Z,60.80
2023-01-30T07:55:39.945Z,60.40
2023-01-30T08:00:42.618Z,60.60
2023-01-30T08:05:47.095Z,60.30
2023-01-30T08:10:49.953Z,60.40
2023-01-30T08:15:52.328Z,60.40
2023-01-30T08:20:59.455Z,60.70
2023-01-30T08:26:04.516Z,60.40
2023-01-30T08:31:11.752Z,60.70
2023-01-30T08:36:14.321Z,60.80
2023-01-30T08:41:16.610Z,60.60
2023-01-30T08:46:20.807Z,61.00
2023-01-30T08:51:23.033Z,61.30
2023-01-30T08:56:25.679Z,61.60
2023-01-30T09:01:28.089Z,61.20
2023-01-30T09:06:30.331Z,61.10
2023-01-30T09:11:32.638Z,61.90
2023-01-30T09:16:34.843Z,62.30
2023-01-30T09:21:39.032Z,61.40
2023-01-30T09:26:44.844Z,62.20
2023-01-30T09:31:47.181Z,63.10
2023-01-30T09:36:49.475Z,62.80
2023-01-30T09:42:23.798Z,62.30
2023-01-30T09:57:50.671Z,62.10
2023-01-30T10:29:57.177Z,59.70
2023-01-30T10:35:08.077Z,61.40
2023-01-30T10:45:28.381Z,61.60
2023-01-30T10:50:45.478Z,60.30
2023-01-30T10:55:52.672Z,59.50
2023-01-30T11:06:42.278Z,60.70
2023-01-30T11:11:51.155Z,60.60
2023-01-30T11:16:55.513Z,60.70
2023-01-30T11:22:04.291Z,60.30
2023-01-30T11:32:26.894Z,57.70
2023-01-30T11:37:39.282Z,58.50
2023-01-30T11:42:45.965Z,59.20
2023-01-30T11:48:02.283Z,58.00
2023-01-30T11:53:21.901Z,59.50
2023-01-30T11:58:24.552Z,59.60
2023-01-30T12:03:29.771Z,58.00
2023-01-30T12:08:42.110Z,58.90
2023-01-30T12:13:45.766Z,58.50
2023-01-30T12:24:22.368Z,59.40
2023-01-30T12:34:41.053Z,58.30
2023-01-30T12:45:24.758Z,60.10
2023-01-30T12:51:06.709Z,58.80
2023-01-30T13:01:36.859Z,57.80
2023-01-30T13:28:02.504Z,57.30
2023-01-30T13:33:21.962Z,56.20
2023-01-30T13:38:28.212Z,56.90
2023-01-30T13:43:36.929Z,56.50
2023-01-30T13:49:05.468Z,56.60
2023-01-30T14:09:45.333Z,56.90
2023-01-30T14:15:02.957Z,57.00
2023-01-30T14:20:17.206Z,57.20
2023-01-30T14:25:36.063Z,57.30
2023-01-30T14:41:27.366Z,57.30
2023-01-30T15:07:19.068Z,57.10
2023-01-30T15:28:49.535Z,57.20
2023-01-30T15:33:54.287Z,57.40
2023-01-30T15:39:03.677Z,57.30
2023-01-30T15:54:51.925Z,57.60
2023-01-30T15:59:56.014Z,57.60
2023-01-30T16:21:00.101Z,57.40
2023-01-30T16:26:04.862Z,57.40
2023-01-30T16:31:09.863Z,57.80
2023-01-30T16:41:41.151Z,57.60
2023-01-30T16:47:04.884Z,57.90
2023-01-30T16:57:40.463Z,58.00
2023-01-30T17:02:47.595Z,58.00
2023-01-30T17:07:51.994Z,58.10
2023-01-30T17:12:55.557Z,57.90
2023-01-30T17:17:57.954Z,58.00
2023-01-30T17:23:06.166Z,57.70
2023-01-30T17:28:13.347Z,57.60
2023-01-30T17:33:15.605Z,57.90
2023-01-30T17:38:18.097Z,57.90
2023-01-30T17:43:20.290Z,57.80
2023-01-30T17:48:22.490Z,57.60
2023-01-30T17:53:24.720Z,57.90
2023-01-30T17:58:27.011Z,57.60
2023-01-30T18:03:29.230Z,57.50
2023-01-30T18:08:31.515Z,57.80
2023-01-30T18:13:35.604Z,57.90
2023-01-30T18:18:37.972Z,58.30
2023-01-30T18:23:40.182Z,57.90
2023-01-30T18:28:43.987Z,57.90
2023-01-30T18:33:47.334Z,57.70
2023-01-30T18:38:50.112Z,57.80
2023-01-30T18:43:57.481Z,57.70
2023-01-30T18:48:59.905Z,57.70
2023-01-30T18:54:02.837Z,57.60
2023-01-30T18:59:06.304Z,57.60
2023-01-30T19:04:10.820Z,57.50
2023-01-30T19:09:15.137Z,57.60
2023-01-30T19:14:17.451Z,57.70
2023-01-30T19:19:19.690Z,57.60
2023-01-30T19:24:22.408Z,57.50
2023-01-30T19:29:24.645Z,57.40
2023-01-30T19:34:26.885Z,57.40
2023-01-30T19:39:29.128Z,57.50
2023-01-30T19:44:31.400Z,57.30
2023-01-30T19:49:35.910Z,57.50
2023-01-30T19:54:38.853Z,57.50
2023-01-30T19:59:42.818Z,57.50
2023-01-30T20:04:45.087Z,57.50
2023-01-30T20:09:47.316Z,57.50
2023-01-30T20:14:49.707Z,57.40
2023-01-30T20:19:51.938Z,57.50
2023-01-30T20:24:54.248Z,57.80
2023-01-30T20:29:56.570Z,57.70
2023-01-30T20:34:58.840Z,57.50
2023-01-30T20:40:01.065Z,57.60
2023-01-30T20:45:03.552Z,57.40
2023-01-30T20:50:06.252Z,57.50
2023-01-30T20:55:09.522Z,57.50
2023-01-30T21:00:13.974Z,57.60
2023-01-30T21:05:16.613Z,57.70
2023-01-30T21:10:18.826Z,57.60
2023-01-30T21:15:21.310Z,57.80
2023-01-30T21:20:23.679Z,57.50
2023-01-30T21:25:26.480Z,57.60
2023-01-30T21:30:28.836Z,57.70
2023-01-30T21:35:32.199Z,57.70
2023-01-30T21:40:54.289Z,57.70
2023-01-30T21:45:59.227Z,57.50
2023-01-30T21:51:10.077Z,57.60
2023-01-30T21:56:12.261Z,57.70
2023-01-30T22:01:14.946Z,57.70
2023-01-30T22:06:17.249Z,57.60
2023-01-30T22:12:19.153Z,57.60
2023-01-30T22:19:00.719Z,57.70
2023-01-30T22:24:42.816Z,57.80
2023-01-30T22:29:45.110Z,57.60
2023-01-30T22:34:47.408Z,57.80
2023-01-30T22:39:50.316Z,57.80
2023-01-30T22:44:52.590Z,57.70
2023-01-30T22:49:54.819Z,57.90
2023-01-30T22:54:57.079Z,57.90
2023-01-30T22:59:59.321Z,57.70
2023-01-30T23:23:34.205Z,56.70
2023-01-30T23:28:37.782Z,59.60
2023-01-30T23:33:40.151Z,59.10
2023-01-30T23:38:42.422Z,58.90
2023-01-30T23:43:45.985Z,58.90
2023-01-30T23:48:50.569Z,59.00
2023-01-30T23:53:53.424Z,58.70
2023-01-30T23:58:56.221Z,58.70
